createdAt,value
2019-01-20T00:02:00.071Z,59.81
2019-01-20T00:04:30.083Z,59.81
2019-01-20T00:07:02.051Z,59.18
2019-01-20T00:09:34.682Z,59.18
2019-01-20T00:12:04.501Z,58.35
2019-01-20T00:14:45.890Z,58.35
2019-01-20T00:17:15.504Z,58.03
2019-01-20T00:19:45.131Z,56.28
2019-01-20T00:22:14.635Z,57.92
2019-01-20T00:24:44.279Z,56.76
2019-01-20T00:30:02.581Z,56.24
2019-01-20T00:32:46.535Z,56.44
2019-01-20T00:35:35.009Z,55.09
2019-01-20T00:38:26.164Z,55.09
2019-01-20T00:41:06.963Z,55.13
2019-01-20T00:43:57.078Z,55.13
2019-01-20T00:46:26.982Z,54.63
2019-01-20T00:48:56.449Z,54.19
2019-01-20T00:51:26.473Z,53.73
2019-01-20T00:53:56.114Z,53.75
2019-01-20T00:56:25.752Z,52.64
2019-01-20T00:59:14.276Z,53.49
2019-01-20T01:01:43.906Z,52.64
2019-01-20T01:04:13.417Z,52.64
2019-01-20T01:09:37.761Z,53.07
2019-01-20T01:12:19.243Z,52.92
2019-01-20T01:17:43.141Z,53.30
2019-01-20T01:20:14.115Z,53.92
2019-01-20T01:22:43.664Z,53.37
2019-01-20T01:25:14.630Z,52.10
2019-01-20T01:27:44.088Z,53.04
2019-01-20T01:30:16.490Z,53.06
2019-01-20T01:32:45.943Z,52.15
2019-01-20T01:35:15.786Z,51.96
2019-01-20T01:37:45.231Z,52.09
2019-01-20T01:40:33.828Z,52.52
2019-01-20T01:43:03.599Z,54.38
2019-01-20T01:45:35.033Z,55.17
2019-01-20T01:48:04.964Z,55.17
2019-01-20T01:50:45.093Z,55.14
2019-01-20T01:53:33.807Z,56.27
2019-01-20T01:56:22.480Z,56.65
2019-01-20T01:59:03.563Z,56.30
2019-01-20T02:01:33.804Z,56.30
2019-01-20T02:04:03.593Z,55.76
2019-01-20T02:06:45.443Z,55.95
2019-01-20T02:14:56.961Z,55.52
2019-01-20T02:17:26.524Z,55.08
2019-01-20T02:19:56.103Z,54.79
2019-01-20T02:25:03.794Z,55.60
2019-01-20T02:30:31.959Z,55.49
2019-01-20T02:33:01.590Z,56.29
2019-01-20T02:35:31.232Z,56.53
2019-01-20T02:38:00.858Z,56.67
2019-01-20T02:40:49.509Z,57.08
2019-01-20T02:43:19.426Z,57.08
2019-01-20T02:46:08.221Z,56.95
2019-01-20T02:48:37.953Z,57.03
2019-01-20T02:51:08.533Z,57.03
2019-01-20T02:53:38.187Z,56.98
2019-01-20T02:56:07.784Z,56.98
2019-01-20T02:58:37.448Z,57.34
2019-01-20T03:01:07.107Z,56.77
2019-01-20T03:03:36.937Z,56.50
2019-01-20T03:06:06.635Z,56.50
2019-01-20T03:08:55.410Z,56.95
2019-01-20T03:11:24.959Z,57.12
2019-01-20T03:13:54.449Z,57.12
2019-01-20T03:16:24.916Z,57.42
2019-01-20T03:19:15.433Z,56.97
2019-01-20T03:22:04.191Z,57.29
2019-01-20T03:24:33.770Z,57.29
2019-01-20T03:27:03.432Z,57.05
2019-01-20T03:29:33.207Z,56.87
2019-01-20T03:32:03.082Z,56.89
2019-01-20T03:34:32.561Z,56.77
2019-01-20T03:37:21.394Z,56.81
2019-01-20T03:42:46.257Z,56.90
2019-01-20T03:45:17.421Z,56.30
2019-01-20T03:47:47.109Z,56.30
2019-01-20T03:50:17.492Z,56.18
2019-01-20T03:52:47.108Z,56.19
2019-01-20T03:55:27.505Z,55.01
2019-01-20T03:57:57.168Z,55.98
2019-01-20T04:00:26.843Z,56.24
2019-01-20T04:03:15.543Z,56.43
2019-01-20T04:05:45.117Z,55.99
2019-01-20T04:08:14.644Z,56.10
2019-01-20T04:10:44.248Z,55.93
2019-01-20T04:13:13.710Z,56.52
2019-01-20T04:15:43.386Z,56.52
2019-01-20T04:18:13.115Z,56.36
2019-01-20T04:20:52.117Z,56.46
2019-01-20T04:23:22.237Z,55.88
2019-01-20T04:25:51.923Z,55.82
2019-01-20T04:28:21.431Z,55.76
2019-01-20T04:31:11.614Z,56.07
2019-01-20T04:36:30.559Z,56.10
2019-01-20T04:39:00.004Z,56.04
2019-01-20T04:41:30.883Z,56.47
2019-01-20T04:44:11.334Z,56.59
2019-01-20T04:46:40.848Z,56.25
2019-01-20T04:49:10.482Z,56.49
2019-01-20T04:51:40.100Z,57.20
2019-01-20T04:54:10.009Z,57.34
2019-01-20T04:56:39.520Z,57.67
2019-01-20T04:59:12.664Z,57.88
2019-01-20T05:01:42.215Z,58.05
2019-01-20T05:04:12.142Z,57.62
2019-01-20T05:06:42.138Z,57.85
2019-01-20T05:09:13.126Z,57.97
2019-01-20T05:11:42.974Z,57.93
2019-01-20T05:14:13.012Z,57.95
2019-01-20T05:16:42.614Z,58.22
2019-01-20T05:19:40.048Z,58.43
2019-01-20T05:21:57.170Z,58.77
2019-01-20T05:24:27.299Z,58.92
2019-01-20T05:27:26.056Z,59.21
2019-01-20T05:29:56.750Z,59.33
2019-01-20T05:32:26.270Z,59.71
2019-01-20T05:37:44.356Z,60.04
2019-01-20T05:40:14.859Z,60.09
2019-01-20T05:43:08.355Z,60.38
2019-01-20T05:45:49.280Z,60.12
2019-01-20T05:48:19.092Z,60.46
2019-01-20T05:50:51.778Z,60.46
2019-01-20T05:53:21.372Z,60.64
2019-01-20T05:55:50.826Z,60.79
2019-01-20T05:58:21.193Z,60.48
2019-01-20T06:03:25.372Z,60.67
2019-01-20T06:06:13.806Z,60.29
2019-01-20T06:08:43.332Z,60.11
2019-01-20T06:11:12.985Z,60.65
2019-01-20T06:13:42.683Z,60.53
2019-01-20T06:16:26.387Z,60.52
2019-01-20T06:18:56.122Z,60.75
2019-01-20T06:21:25.550Z,60.97
2019-01-20T06:26:43.499Z,60.97
2019-01-20T06:29:12.949Z,60.97
2019-01-20T06:31:49.626Z,61.09
2019-01-20T06:37:28.592Z,61.36
2019-01-20T06:39:58.334Z,61.31
2019-01-20T06:42:46.925Z,61.50
2019-01-20T06:45:36.952Z,61.49
2019-01-20T06:48:18.305Z,61.78
2019-01-20T06:50:48.949Z,62.08
2019-01-20T06:53:18.426Z,62.38
2019-01-20T06:55:48.100Z,62.29
2019-01-20T06:58:36.747Z,62.41
2019-01-20T07:01:06.376Z,62.15
2019-01-20T07:03:36.058Z,62.45
2019-01-20T07:06:05.701Z,62.48
2019-01-20T07:08:35.936Z,63.17
2019-01-20T07:11:05.412Z,63.24
2019-01-20T07:13:37.175Z,63.31
2019-01-20T07:16:07.031Z,63.34
2019-01-20T07:18:37.080Z,63.48
2019-01-20T07:21:08.090Z,63.60
2019-01-20T07:23:38.447Z,63.84
2019-01-20T07:26:20.079Z,64.01
2019-01-20T07:28:40.020Z,63.98
2019-01-20T07:31:21.158Z,64.01
2019-01-20T07:33:50.881Z,63.90
2019-01-20T07:36:29.322Z,64.24
2019-01-20T07:38:58.831Z,64.32
2019-01-20T07:41:47.331Z,64.10
2019-01-20T07:44:28.452Z,64.17
2019-01-20T07:47:09.224Z,64.10
2019-01-20T07:49:43.180Z,64.28
2019-01-20T07:52:12.774Z,64.51
2019-01-20T07:55:08.023Z,64.42
2019-01-20T07:57:38.627Z,64.37
2019-01-20T08:00:11.053Z,64.18
2019-01-20T08:05:35.886Z,64.20
2019-01-20T08:18:59.078Z,63.29
2019-01-20T08:21:47.444Z,62.88
2019-01-20T08:24:17.514Z,62.73
2019-01-20T08:26:48.070Z,62.33
2019-01-20T08:29:18.283Z,62.34
2019-01-20T08:31:48.097Z,62.14
2019-01-20T08:34:17.877Z,62.10
2019-01-20T08:36:47.398Z,62.05
2019-01-20T08:41:51.993Z,61.92
2019-01-20T08:44:27.208Z,61.87
2019-01-20T08:47:11.255Z,61.71
2019-01-20T08:49:40.803Z,61.55
2019-01-20T08:52:29.437Z,61.37
2019-01-20T08:55:18.025Z,61.37
2019-01-20T08:57:47.504Z,61.06
2019-01-20T09:00:21.105Z,60.98
2019-01-20T09:02:50.842Z,61.15
2019-01-20T09:05:20.770Z,61.13
2019-01-20T09:07:50.688Z,61.22
2019-01-20T09:10:26.788Z,61.30
2019-01-20T09:16:08.063Z,61.36
2019-01-20T09:18:37.719Z,61.30
2019-01-20T09:23:55.723Z,61.17
2019-01-20T09:26:25.272Z,61.18
2019-01-20T09:28:57.642Z,60.88
2019-01-20T09:31:27.143Z,61.04
2019-01-20T09:34:13.317Z,60.89
2019-01-20T09:36:47.676Z,60.80
2019-01-20T09:42:15.524Z,60.55
2019-01-20T09:47:34.031Z,60.17
2019-01-20T09:50:24.201Z,59.97
2019-01-20T09:53:04.849Z,59.00
2019-01-20T09:55:46.785Z,59.00
2019-01-20T09:58:16.493Z,58.90
2019-01-20T10:04:05.671Z,58.90
2019-01-20T10:06:38.282Z,58.90
2019-01-20T10:09:09.455Z,58.35
2019-01-20T10:11:39.034Z,58.35
2019-01-20T10:14:08.570Z,58.99
2019-01-20T10:16:57.022Z,58.61
2019-01-20T10:19:27.214Z,58.61
2019-01-20T10:21:56.755Z,57.25
2019-01-20T10:24:26.424Z,57.25
2019-01-20T10:26:55.975Z,57.23
2019-01-20T10:29:25.552Z,57.40
2019-01-20T10:34:31.170Z,56.16
2019-01-20T10:37:03.988Z,56.16
2019-01-20T10:39:52.431Z,55.45
2019-01-20T10:42:22.211Z,55.45
2019-01-20T10:44:51.876Z,55.11
2019-01-20T10:47:22.009Z,54.96
2019-01-20T10:50:11.077Z,55.01
2019-01-20T10:55:29.162Z,55.05
2019-01-20T10:57:58.831Z,55.05
2019-01-20T11:00:30.834Z,55.36
2019-01-20T11:03:19.472Z,55.15
2019-01-20T11:05:49.291Z,55.15
2019-01-20T11:10:58.892Z,55.26
2019-01-20T11:13:28.381Z,55.40
2019-01-20T11:15:58.009Z,54.97
2019-01-20T11:21:21.885Z,54.78
2019-01-20T11:24:17.794Z,54.52
2019-01-20T11:26:59.211Z,54.12
2019-01-20T11:29:28.729Z,54.12
2019-01-20T11:31:58.271Z,54.40
2019-01-20T11:34:27.849Z,53.96
2019-01-20T11:36:57.559Z,53.95
2019-01-20T11:39:27.112Z,54.36
2019-01-20T11:41:56.570Z,53.51
2019-01-20T11:44:26.220Z,53.51
2019-01-20T11:47:15.218Z,53.15
2019-01-20T11:49:44.883Z,53.15
2019-01-20T11:52:14.923Z,53.32
2019-01-20T11:55:03.473Z,54.24
2019-01-20T11:57:33.281Z,54.24
2019-01-20T12:00:05.508Z,54.12
2019-01-20T12:02:35.105Z,54.12
2019-01-20T12:08:14.078Z,54.72
2019-01-20T12:10:43.903Z,54.72
2019-01-20T12:16:04.862Z,54.89
2019-01-20T12:18:34.424Z,54.55
2019-01-20T12:21:04.213Z,54.33
2019-01-20T12:23:33.969Z,54.64
2019-01-20T12:26:23.765Z,54.36
2019-01-20T12:29:04.444Z,54.36
2019-01-20T12:34:28.725Z,54.12
2019-01-20T12:36:58.207Z,54.15
2019-01-20T12:39:27.668Z,54.15
2019-01-20T12:41:57.166Z,55.32
2019-01-20T12:44:31.422Z,55.32
2019-01-20T12:47:06.110Z,55.69
2019-01-20T12:49:54.452Z,55.89
2019-01-20T12:52:35.682Z,56.69
2019-01-20T12:58:14.248Z,56.97
2019-01-20T13:00:43.946Z,57.46
2019-01-20T13:03:13.669Z,57.31
2019-01-20T13:05:43.462Z,57.71
2019-01-20T13:08:13.140Z,57.94
2019-01-20T13:10:42.952Z,58.20
2019-01-20T13:15:50.358Z,57.63
2019-01-20T13:18:20.171Z,56.97
2019-01-20T13:21:08.896Z,56.85
2019-01-20T13:23:50.433Z,57.21
2019-01-20T13:26:20.621Z,57.21
2019-01-20T13:29:12.144Z,57.79
2019-01-20T13:31:53.572Z,57.79
2019-01-20T13:34:23.138Z,57.92
2019-01-20T13:36:52.740Z,57.92
2019-01-20T13:39:22.564Z,58.32
2019-01-20T13:41:52.750Z,58.33
2019-01-20T13:44:22.524Z,58.37
2019-01-20T13:47:11.219Z,58.42
2019-01-20T13:55:35.051Z,58.64
2019-01-20T13:58:05.355Z,58.77
2019-01-20T14:03:25.116Z,58.88
2019-01-20T14:05:55.413Z,58.94
2019-01-20T14:08:24.877Z,59.06
2019-01-20T14:10:54.392Z,59.25
2019-01-20T14:13:31.463Z,59.41
2019-01-20T14:16:01.387Z,59.61
2019-01-20T14:18:33.850Z,59.68
2019-01-20T14:21:03.467Z,59.88
2019-01-20T14:23:34.566Z,60.10
2019-01-20T14:26:07.220Z,60.28
2019-01-20T14:28:36.996Z,60.32
2019-01-20T14:31:06.621Z,60.44
2019-01-20T14:39:25.610Z,60.81
2019-01-20T14:41:55.129Z,61.23
2019-01-20T14:47:58.232Z,61.40
2019-01-20T14:53:46.608Z,62.02
2019-01-20T14:56:29.282Z,62.13
2019-01-20T14:59:17.759Z,62.26
2019-01-20T15:01:47.367Z,62.38
2019-01-20T15:04:24.118Z,62.67
2019-01-20T15:07:13.270Z,62.78
2019-01-20T15:12:54.142Z,63.44
2019-01-20T15:15:32.351Z,64.00
2019-01-20T15:18:02.651Z,64.31
2019-01-20T15:23:25.085Z,65.24
2019-01-20T15:25:54.711Z,65.45
2019-01-20T15:28:39.867Z,65.75
2019-01-20T15:31:09.730Z,66.22
2019-01-20T15:33:39.647Z,66.24
2019-01-20T15:36:09.248Z,66.49
2019-01-20T15:39:00.388Z,66.71
2019-01-20T15:45:06.017Z,67.18
2019-01-20T15:47:48.851Z,67.39
2019-01-20T15:50:26.938Z,67.73
2019-01-20T15:53:15.700Z,68.19
2019-01-20T15:58:26.823Z,68.27
2019-01-20T16:03:52.128Z,68.61
2019-01-20T16:09:48.368Z,68.66
2019-01-20T16:12:06.760Z,68.69
2019-01-20T16:14:47.697Z,68.72
2019-01-20T16:17:39.133Z,68.86
2019-01-20T16:20:28.814Z,68.82
2019-01-20T16:22:58.495Z,69.06
2019-01-20T16:25:35.877Z,69.13
2019-01-20T16:28:24.430Z,69.51
2019-01-20T16:30:57.705Z,69.61
2019-01-20T16:33:27.688Z,69.90
2019-01-20T16:36:17.860Z,70.16
2019-01-20T16:39:07.495Z,70.36
2019-01-20T16:41:39.337Z,70.49
2019-01-20T16:44:10.765Z,71.00
2019-01-20T16:46:43.754Z,71.20
2019-01-20T16:51:55.538Z,71.56
2019-01-20T16:54:48.852Z,71.80
2019-01-20T16:57:18.504Z,72.07
2019-01-20T16:59:48.813Z,71.87
2019-01-20T17:02:18.320Z,72.20
2019-01-20T17:07:35.281Z,72.46
2019-01-20T17:10:09.988Z,72.41
2019-01-20T17:12:40.375Z,72.78
2019-01-20T17:15:12.857Z,72.43
2019-01-20T17:17:42.458Z,72.83
2019-01-20T17:20:19.956Z,73.02
2019-01-20T17:22:49.918Z,73.27
2019-01-20T17:25:19.529Z,73.26
2019-01-20T17:30:30.582Z,73.95
2019-01-20T17:33:00.482Z,74.31
2019-01-20T17:35:54.830Z,74.55
2019-01-20T17:43:48.234Z,75.41
2019-01-20T17:49:11.427Z,76.08
2019-01-20T17:51:51.480Z,76.30
2019-01-20T17:55:06.516Z,76.31
2019-01-20T17:57:35.984Z,77.00
2019-01-20T18:00:45.808Z,76.99
2019-01-20T18:06:10.428Z,77.75
2019-01-20T18:08:40.098Z,78.50
2019-01-20T18:11:28.603Z,78.68
2019-01-20T18:14:17.248Z,79.01
2019-01-20T18:20:05.690Z,79.66
2019-01-20T18:22:54.296Z,79.51
2019-01-20T18:25:24.154Z,80.06
2019-01-20T18:28:13.378Z,79.86
2019-01-20T18:30:43.393Z,80.11
2019-01-20T18:33:23.834Z,80.09
2019-01-20T18:35:56.304Z,80.03
2019-01-20T18:41:00.799Z,80.63
2019-01-20T18:43:41.218Z,81.18
2019-01-20T18:49:02.556Z,81.32
2019-01-20T18:51:54.245Z,81.71
2019-01-20T18:54:35.191Z,81.91
2019-01-20T18:57:05.276Z,81.91
2019-01-20T18:59:35.390Z,81.65
2019-01-20T19:02:10.493Z,81.64
2019-01-20T19:04:40.701Z,81.64
2019-01-20T19:07:25.947Z,81.51
2019-01-20T19:09:43.136Z,81.55
2019-01-20T19:12:13.875Z,81.69
2019-01-20T19:14:43.464Z,81.92
2019-01-20T19:19:50.899Z,81.83
2019-01-20T19:24:55.886Z,81.71
2019-01-20T19:27:36.716Z,81.91
2019-01-20T19:30:13.792Z,81.66
2019-01-20T19:35:18.354Z,81.39
2019-01-20T19:37:48.091Z,81.82
2019-01-20T19:40:17.991Z,81.67
2019-01-20T19:42:47.718Z,81.93
2019-01-20T19:45:18.600Z,81.87
2019-01-20T19:53:20.307Z,82.38
2019-01-20T19:56:01.708Z,82.55
2019-01-20T20:01:13.739Z,82.14
2019-01-20T20:09:22.027Z,82.17
2019-01-20T20:11:52.131Z,82.34
2019-01-20T20:14:24.035Z,82.13
2019-01-20T20:16:53.575Z,82.14
2019-01-20T20:19:37.419Z,82.32
2019-01-20T20:22:06.971Z,82.28
2019-01-20T20:27:32.274Z,82.25
2019-01-20T20:30:02.209Z,82.34
2019-01-20T20:35:22.914Z,81.69
2019-01-20T20:37:52.675Z,82.25
2019-01-20T20:40:28.721Z,82.30
2019-01-20T20:45:58.560Z,80.96
2019-01-20T20:48:28.816Z,81.54
2019-01-20T20:50:58.308Z,81.21
2019-01-20T20:53:27.957Z,80.61
2019-01-20T20:55:57.439Z,79.51
2019-01-20T20:58:49.958Z,79.87
2019-01-20T21:01:23.571Z,78.81
2019-01-20T21:03:53.248Z,81.14
2019-01-20T21:06:25.319Z,82.50
2019-01-20T21:08:54.962Z,82.53
2019-01-20T21:11:24.484Z,83.36
2019-01-20T21:13:57.436Z,83.56
2019-01-20T21:16:27.583Z,83.82
2019-01-20T21:21:45.772Z,83.81
2019-01-20T21:24:17.114Z,83.87
2019-01-20T21:26:46.613Z,83.50
2019-01-20T21:29:36.949Z,83.21
2019-01-20T21:32:06.420Z,83.20
2019-01-20T21:34:35.850Z,83.25
2019-01-20T21:37:05.438Z,83.73
2019-01-20T21:39:54.183Z,83.65
2019-01-20T21:42:23.902Z,83.50
2019-01-20T21:45:00.034Z,83.60
2019-01-20T21:47:41.485Z,84.02
2019-01-20T21:50:14.838Z,84.07
2019-01-20T21:52:44.479Z,84.05
2019-01-20T21:55:14.066Z,83.97
2019-01-20T21:57:43.743Z,84.04
2019-01-20T22:00:16.225Z,83.91
2019-01-20T22:02:47.891Z,84.17
2019-01-20T22:05:36.513Z,83.62
2019-01-20T22:08:06.008Z,83.88
2019-01-20T22:10:35.471Z,83.90
2019-01-20T22:13:44.183Z,84.00
2019-01-20T22:16:13.650Z,84.08
2019-01-20T22:18:43.179Z,84.03
2019-01-20T22:21:12.680Z,84.42
2019-01-20T22:23:46.808Z,84.50
2019-01-20T22:26:16.458Z,84.64
2019-01-20T22:28:45.954Z,84.44
2019-01-20T22:31:15.387Z,84.38
2019-01-20T22:33:45.022Z,84.31
2019-01-20T22:36:14.662Z,84.67
2019-01-20T22:38:53.654Z,84.92
2019-01-20T22:41:43.604Z,85.00
2019-01-20T22:44:13.447Z,84.96
2019-01-20T22:46:43.577Z,84.98
2019-01-20T22:49:24.480Z,85.12
2019-01-20T22:54:43.298Z,85.09
2019-01-20T22:57:43.002Z,85.10
2019-01-20T23:00:53.864Z,84.67
2019-01-20T23:06:12.206Z,83.54
2019-01-20T23:08:47.431Z,83.74
2019-01-20T23:11:16.899Z,83.74
2019-01-20T23:13:46.449Z,83.33
2019-01-20T23:16:34.809Z,83.52
2019-01-20T23:19:23.678Z,83.70
2019-01-20T23:22:18.671Z,83.78
2019-01-20T23:24:55.421Z,83.64
2019-01-20T23:27:43.957Z,83.18
2019-01-20T23:32:58.051Z,84.08
2019-01-20T23:35:50.129Z,84.16
2019-01-20T23:38:19.612Z,84.64
2019-01-20T23:43:38.667Z,84.37
2019-01-20T23:46:08.301Z,83.89
2019-01-20T23:48:37.913Z,83.69
2019-01-20T23:51:07.442Z,83.97
2019-01-20T23:53:42.611Z,84.28
2019-01-20T23:58:50.151Z,84.22
